Time;durP1;ratioP1;P1;durP2;ratioP2;P2;SDS_P1;SDS_P2;PMS_P1;PMS_P2;Temp;Humidity;BMP_temperature;BMP_pressure;BME280_temperature;BME280_humidity;BME280_pressure;Samples;Min_cycle;Max_cycle;Signal;HPM_P1;HPM_P2
2023/02/13 00:00:52;;;;;;;;;;;;;;;5.92;100.00;-18187.25;4968441;28;19941;-85
2023/02/13 00:03:17;;;;;;;;;;;;;;;5.90;100.00;-18186.84;4964438;28;19927;-85
2023/02/13 00:05:42;;;;;;;;;;;;;;;5.85;100.00;-18185.47;4968069;28;19928;-86
2023/02/13 00:08:08;;;;;;;;;;;;;;;5.82;100.00;-18184.66;4968814;28;19958;-86
2023/02/13 00:10:33;;;;;;;;;;;;;;;5.79;100.00;-18183.97;4964525;28;19981;-86
2023/02/13 00:12:59;;;;;;;;;;;;;;;5.77;100.00;-18183.25;4963335;28;19924;-86
2023/02/13 00:15:24;;;;;;;;;;;;;;;5.73;100.00;-18182.31;4969388;28;20008;-85
2023/02/13 00:17:49;;;;;;;;;;;;;;;5.69;100.00;-18181.19;4976904;28;19929;-85
2023/02/13 00:20:15;;;;;;;;;;;;;;;5.66;100.00;-18180.38;4974504;28;20017;-85
2023/02/13 00:22:40;;;;;;;;;;;;;;;5.64;100.00;-18179.81;4975501;28;19918;-86
2023/02/13 00:25:06;;;;;;;;;;;;;;;5.61;100.00;-18179.13;4951586;28;20020;-85
2023/02/13 00:27:32;;;;;;;;;;;;;;;5.59;100.00;-18178.56;4967131;28;19985;-85
2023/02/13 00:29:57;;;;;;;;;;;;;;;5.57;100.00;-18177.88;4964622;28;20632;-85
2023/02/13 00:32:22;;;;;;;;;;;;;;;5.57;100.00;-18177.88;4971712;28;19918;-85
2023/02/13 00:34:47;;;;;;;;;;;;;;;5.55;100.00;-18177.47;4965580;28;19926;-85
2023/02/13 00:37:12;;;;;;;;;;;;;;;5.53;100.00;-18176.91;4969143;28;19929;-85
2023/02/13 00:39:38;;;;;;;;;;;;;;;5.51;100.00;-18176.38;4969730;28;20300;-86
2023/02/13 00:42:03;;;;;;;;;;;;;;;5.48;100.00;-18175.53;4967290;28;19924;-85
2023/02/13 00:44:29;;;;;;;;;;;;;;;5.45;100.00;-18174.72;4971920;28;19929;-86
2023/02/13 00:46:54;;;;;;;;;;;;;;;5.42;100.00;-18173.88;4967602;28;19918;-86
2023/02/13 00:49:19;;;;;;;;;;;;;;;5.40;100.00;-18173.47;4950476;28;19925;-85
2023/02/13 00:51:44;;;;;;;;;;;;;;;5.38;100.00;-18172.91;4966990;28;19968;-86
2023/02/13 00:54:10;;;;;;;;;;;;;;;5.38;100.00;-18172.91;4952618;28;20315;-85
2023/02/13 00:56:35;;;;;;;;;;;;;;;5.37;100.00;-18172.63;4972076;28;19989;-85
2023/02/13 00:59:00;;;;;;;;;;;;;;;5.36;100.00;-18172.22;4966139;28;19918;-85
2023/02/13 01:01:25;;;;;;;;;;;;;;;5.35;100.00;-18172.09;4967804;28;20005;-85
2023/02/13 01:03:50;;;;;;;;;;;;;;;5.35;100.00;-18171.94;4971314;28;19933;-86
2023/02/13 01:06:16;;;;;;;;;;;;;;;5.30;100.00;-18170.72;4968325;28;20823;-85
2023/02/13 01:08:41;;;;;;;;;;;;;;;5.27;100.00;-18169.75;4973211;28;19953;-85
2023/02/13 01:11:07;;;;;;;;;;;;;;;5.26;100.00;-18169.47;4963930;28;20004;-86
2023/02/13 01:13:32;;;;;;;;;;;;;;;5.22;100.00;-18168.50;4968586;28;20054;-85
2023/02/13 01:15:58;;;;;;;;;;;;;;;5.22;100.00;-18168.38;4965410;28;20322;-85
2023/02/13 01:18:23;;;;;;;;;;;;;;;5.21;100.00;-18168.22;4971893;28;19922;-86
2023/02/13 01:21:02;;;;;;;;;;;;;;;5.17;100.00;-18167.13;4969344;28;19929;-85
2023/02/13 01:23:29;;;;;;;;;;;;;;;5.14;100.00;-18166.44;4975127;28;19930;-85
2023/02/13 01:25:54;;;;;;;;;;;;;;;5.15;100.00;-18166.72;4972859;28;20432;-84
2023/02/13 01:28:19;;;;;;;;;;;;;;;5.13;100.00;-18166.16;4967355;28;20057;-85
2023/02/13 01:30:44;;;;;;;;;;;;;;;5.12;100.00;-18165.75;4968403;28;19965;-84
2023/02/13 01:33:10;;;;;;;;;;;;;;;5.08;100.00;-18164.78;4964800;28;19919;-84
2023/02/13 01:35:38;;;;;;;;;;;;;;;5.09;100.00;-18164.91;4970649;28;20415;-85
2023/02/13 01:38:03;;;;;;;;;;;;;;;5.08;100.00;-18164.63;4973993;28;19918;-85
2023/02/13 01:40:29;;;;;;;;;;;;;;;5.06;100.00;-18164.09;4970733;28;19923;-84
2023/02/13 01:42:54;;;;;;;;;;;;;;;5.04;100.00;-18163.53;4972779;28;19977;-85
2023/02/13 01:45:24;;;;;;;;;;;;;;;5.03;100.00;-18163.41;4958347;28;20541;-85
2023/02/13 01:47:54;;;;;;;;;;;;;;;5.01;100.00;-18162.84;4959409;28;19965;-85
2023/02/13 01:50:26;;;;;;;;;;;;;;;4.99;100.00;-18162.28;4970528;28;19968;-85
2023/02/13 01:52:56;;;;;;;;;;;;;;;4.98;100.00;-18162.16;4955322;28;19929;-85
2023/02/13 01:55:22;;;;;;;;;;;;;;;5.00;100.00;-18162.44;4972299;28;20009;-85
2023/02/13 01:57:57;;;;;;;;;;;;;;;4.99;100.00;-18162.28;4990695;28;19980;-86
2023/02/13 02:00:22;;;;;;;;;;;;;;;4.97;100.00;-18161.75;4971886;28;19928;-84
2023/02/13 02:02:53;;;;;;;;;;;;;;;4.97;100.00;-18161.75;4975410;28;19986;-85
2023/02/13 02:05:20;;;;;;;;;;;;;;;4.95;100.00;-18161.19;4968271;28;19961;-84
2023/02/13 02:07:46;;;;;;;;;;;;;;;4.95;100.00;-18161.31;4975721;28;20407;-85
2023/02/13 02:10:14;;;;;;;;;;;;;;;4.95;100.00;-18161.19;4990876;28;19930;-85
2023/02/13 02:12:39;;;;;;;;;;;;;;;4.95;100.00;-18161.19;4978773;28;19969;-84
2023/02/13 02:15:05;;;;;;;;;;;;;;;4.93;100.00;-18160.63;4976997;28;20414;-85
2023/02/13 02:17:30;;;;;;;;;;;;;;;4.92;100.00;-18160.50;4978002;28;19925;-84
2023/02/13 02:19:55;;;;;;;;;;;;;;;4.91;100.00;-18160.09;4973934;28;20281;-85
2023/02/13 02:22:39;;;;;;;;;;;;;;;4.92;100.00;-18160.34;4975123;28;20013;-85
2023/02/13 02:25:16;;;;;;;;;;;;;;;4.91;100.00;-18160.09;4970282;28;19961;-85
2023/02/13 02:27:50;;;;;;;;;;;;;;;4.92;100.00;-18160.50;4957247;28;19957;-85
2023/02/13 02:30:18;;;;;;;;;;;;;;;4.95;100.00;-18161.31;4970677;28;20533;-84
2023/02/13 02:32:57;;;;;;;;;;;;;;;4.93;100.00;-18160.63;4973346;28;19946;-85
2023/02/13 02:35:29;;;;;;;;;;;;;;;4.93;100.00;-18160.63;4969262;28;19957;-84
2023/02/13 02:37:54;;;;;;;;;;;;;;;4.92;100.00;-18160.34;4968757;28;20436;-84
2023/02/13 02:40:22;;;;;;;;;;;;;;;4.93;100.00;-18160.78;4971287;28;19933;-86
2023/02/13 02:43:04;;;;;;;;;;;;;;;4.94;100.00;-18161.03;4972127;28;19978;-85
2023/02/13 02:45:44;;;;;;;;;;;;;;;4.93;100.00;-18160.63;4974824;28;21541;-85
2023/02/13 02:51:06;;;;;;;;;;;;;;;4.92;100.00;-18160.34;4976265;28;20018;-84
2023/02/13 02:53:31;;;;;;;;;;;;;;;4.92;100.00;-18160.34;4977209;28;19922;-85
2023/02/13 02:56:06;;;;;;;;;;;;;;;4.94;100.00;-18160.91;4970292;28;19995;-85
2023/02/13 03:06:59;;;;;;;;;;;;;;;4.99;100.00;-18162.28;4970589;28;20300;-85
2023/02/13 03:15:02;;;;;;;;;;;;;;;5.01;100.00;-18162.72;4974054;28;19929;-85
2023/02/13 03:23:01;;;;;;;;;;;;;;;5.06;100.00;-18164.22;4971218;28;20342;-85
2023/02/13 03:25:34;;;;;;;;;;;;;;;5.08;100.00;-18164.63;4973936;28;19918;-85
2023/02/13 03:30:55;;;;;;;;;;;;;;;5.09;100.00;-18164.91;4961378;28;19953;-85
2023/02/13 03:33:23;;;;;;;;;;;;;;;5.08;100.00;-18164.78;4974222;28;20016;-85
2023/02/13 03:38:45;;;;;;;;;;;;;;;5.09;100.00;-18165.06;4978845;28;19946;-84
2023/02/13 03:41:17;;;;;;;;;;;;;;;5.10;100.00;-18165.19;4979646;28;19926;-85
2023/02/13 03:44:03;;;;;;;;;;;;;;;5.09;100.00;-18164.91;4960064;28;19973;-84
2023/02/13 03:46:30;;;;;;;;;;;;;;;5.09;100.00;-18165.06;4966727;28;19922;-85
2023/02/13 03:52:01;;;;;;;;;;;;;;;5.11;100.00;-18165.47;4967026;28;19941;-85
2023/02/13 04:00:04;;;;;;;;;;;;;;;5.14;100.00;-18166.44;4966924;28;19941;-86
2023/02/13 04:02:33;;;;;;;;;;;;;;;5.13;100.00;-18166.16;4970499;28;19945;-85
2023/02/13 04:05:05;;;;;;;;;;;;;;;5.14;100.00;-18166.44;4976794;28;19989;-86
2023/02/13 04:07:31;;;;;;;;;;;;;;;5.14;100.00;-18166.44;4971709;28;20344;-86
2023/02/13 04:09:58;;;;;;;;;;;;;;;5.15;100.00;-18166.72;4966038;28;20025;-85
2023/02/13 04:12:42;;;;;;;;;;;;;;;5.15;100.00;-18166.72;4972460;28;19922;-86
2023/02/13 04:15:15;;;;;;;;;;;;;;;5.17;100.00;-18167.13;4970683;28;19929;-86
2023/02/13 04:17:47;;;;;;;;;;;;;;;5.15;100.00;-18166.72;4951955;28;19918;-85
2023/02/13 04:20:13;;;;;;;;;;;;;;;5.17;100.00;-18167.25;4970903;28;19925;-86
2023/02/13 04:22:42;;;;;;;;;;;;;;;5.17;100.00;-18167.13;4972725;28;19933;-85
2023/02/13 04:25:09;;;;;;;;;;;;;;;5.15;100.00;-18166.72;4972411;28;19922;-86
2023/02/13 04:27:34;;;;;;;;;;;;;;;5.16;100.00;-18166.97;4967905;28;20316;-85
2023/02/13 04:29:59;;;;;;;;;;;;;;;5.18;100.00;-18167.41;4987593;28;19926;-86
2023/02/13 04:32:24;;;;;;;;;;;;;;;5.16;100.00;-18166.97;4971959;28;19941;-85
2023/02/13 04:34:50;;;;;;;;;;;;;;;5.17;100.00;-18167.25;4982661;28;19918;-85
2023/02/13 04:37:15;;;;;;;;;;;;;;;5.18;100.00;-18167.53;4971224;28;19927;-86
2023/02/13 04:39:40;;;;;;;;;;;;;;;5.18;100.00;-18167.53;4972423;28;19930;-86
2023/02/13 04:42:05;;;;;;;;;;;;;;;5.21;100.00;-18168.22;4967267;28;19929;-86
2023/02/13 04:44:30;;;;;;;;;;;;;;;5.20;100.00;-18168.09;4967097;28;19922;-86
2023/02/13 04:46:56;;;;;;;;;;;;;;;5.22;100.00;-18168.38;4972389;28;19984;-86
2023/02/13 04:49:21;;;;;;;;;;;;;;;5.24;100.00;-18168.91;4971809;28;19926;-86
2023/02/13 04:51:46;;;;;;;;;;;;;;;5.24;100.00;-18168.91;4987853;28;19926;-86
2023/02/13 04:54:11;;;;;;;;;;;;;;;5.25;100.00;-18169.19;4987369;28;19918;-86
2023/02/13 04:56:37;;;;;;;;;;;;;;;5.26;100.00;-18169.47;4964178;28;20027;-86
2023/02/13 04:59:02;;;;;;;;;;;;;;;5.27;100.00;-18169.75;4966182;28;19925;-86
2023/02/13 05:01:27;;;;;;;;;;;;;;;5.27;100.00;-18169.75;4985462;28;20001;-86
2023/02/13 05:03:52;;;;;;;;;;;;;;;5.29;100.00;-18170.28;4961293;28;19922;-86
2023/02/13 05:06:18;;;;;;;;;;;;;;;5.29;100.00;-18170.28;4967966;28;19928;-85
2023/02/13 05:08:43;;;;;;;;;;;;;;;5.29;100.00;-18170.28;4971545;28;19922;-86
2023/02/13 05:11:08;;;;;;;;;;;;;;;5.29;100.00;-18170.44;4949557;28;20009;-86
2023/02/13 05:13:33;;;;;;;;;;;;;;;5.29;100.00;-18170.28;4964401;28;19949;-85
2023/02/13 05:15:58;;;;;;;;;;;;;;;5.30;100.00;-18170.56;4964182;28;19918;-85
2023/02/13 05:18:24;;;;;;;;;;;;;;;5.31;100.00;-18170.84;4955838;28;20360;-85
2023/02/13 05:23:21;;;;;;;;;;;;;;;5.33;100.00;-18171.53;4971564;28;19918;-85
2023/02/13 05:23:34;;;;;;;;;;;;;;;5.35;100.00;-18172.09;4971205;28;20391;-85
2023/02/13 05:26:00;;;;;;;;;;;;;;;5.38;100.00;-18172.91;4964683;28;20021;-85
2023/02/13 05:31:09;;;;;;;;;;;;;;;5.40;100.00;-18173.47;4965649;28;19985;-86
2023/02/13 05:33:34;;;;;;;;;;;;;;;5.43;100.00;-18174.16;4961016;28;19926;-85
2023/02/13 05:35:59;;;;;;;;;;;;;;;5.45;100.00;-18174.72;4957895;28;20465;-85
2023/02/13 05:38:24;;;;;;;;;;;;;;;5.48;100.00;-18175.41;4963792;28;19975;-86
2023/02/13 05:40:49;;;;;;;;;;;;;;;5.46;100.00;-18174.84;4962447;28;19929;-84
2023/02/13 05:43:15;;;;;;;;;;;;;;;5.46;100.00;-18175.00;4969787;28;19926;-84
2023/02/13 05:45:40;;;;;;;;;;;;;;;5.48;100.00;-18175.53;4966173;28;19922;-85
2023/02/13 05:48:05;;;;;;;;;;;;;;;5.51;100.00;-18176.38;4983618;28;19972;-85
2023/02/13 05:50:31;;;;;;;;;;;;;;;5.52;100.00;-18176.50;4967940;28;19937;-84
2023/02/13 05:52:56;;;;;;;;;;;;;;;5.51;100.00;-18176.38;4962666;28;20352;-85
2023/02/13 05:55:21;;;;;;;;;;;;;;;5.51;100.00;-18176.22;4965245;28;19945;-85
2023/02/13 05:57:46;;;;;;;;;;;;;;;5.52;100.00;-18176.50;4968161;28;19924;-85
2023/02/13 06:00:12;;;;;;;;;;;;;;;5.52;100.00;-18176.63;4970420;28;19929;-84
2023/02/13 06:02:37;;;;;;;;;;;;;;;5.53;100.00;-18176.78;4965405;28;19919;-86
2023/02/13 06:05:02;;;;;;;;;;;;;;;5.54;100.00;-18177.19;4967538;28;20388;-85
2023/02/13 06:07:28;;;;;;;;;;;;;;;5.55;100.00;-18177.47;4969216;28;19948;-85
2023/02/13 06:09:53;;;;;;;;;;;;;;;5.55;100.00;-18177.47;4965832;28;19926;-84
2023/02/13 06:12:18;;;;;;;;;;;;;;;5.56;100.00;-18177.75;4969910;28;19922;-84
2023/02/13 06:14:43;;;;;;;;;;;;;;;5.56;100.00;-18177.63;4969045;28;19926;-84
2023/02/13 06:17:08;;;;;;;;;;;;;;;5.56;100.00;-18177.63;4969542;28;20024;-84
2023/02/13 06:19:34;;;;;;;;;;;;;;;5.57;100.00;-18177.88;4968121;28;19918;-84
2023/02/13 06:21:59;;;;;;;;;;;;;;;5.58;100.00;-18178.16;4963583;28;19918;-85
2023/02/13 06:24:24;;;;;;;;;;;;;;;5.58;100.00;-18178.31;4963606;28;20592;-85
2023/02/13 06:26:49;;;;;;;;;;;;;;;5.60;100.00;-18178.84;4965221;28;20368;-84
2023/02/13 06:29:15;;;;;;;;;;;;;;;5.60;100.00;-18178.84;4984308;28;20523;-84
2023/02/13 06:31:40;;;;;;;;;;;;;;;5.61;100.00;-18179.13;4966972;28;19961;-84
2023/02/13 06:34:05;;;;;;;;;;;;;;;5.62;100.00;-18179.25;4963061;28;19926;-84
2023/02/13 06:36:30;;;;;;;;;;;;;;;5.62;100.00;-18179.25;4966835;28;19981;-84
2023/02/13 06:38:55;;;;;;;;;;;;;;;5.63;100.00;-18179.69;4964206;28;19918;-84
2023/02/13 06:41:21;;;;;;;;;;;;;;;5.61;100.00;-18179.13;4967873;28;19922;-85
2023/02/13 06:43:46;;;;;;;;;;;;;;;5.63;100.00;-18179.69;4968273;28;19930;-84
2023/02/13 06:46:11;;;;;;;;;;;;;;;5.63;100.00;-18179.69;4952777;28;19918;-85
2023/02/13 06:48:36;;;;;;;;;;;;;;;5.63;100.00;-18179.53;4967235;28;19977;-85
2023/02/13 06:51:02;;;;;;;;;;;;;;;5.63;100.00;-18179.53;4947654;28;19944;-83
2023/02/13 06:53:27;;;;;;;;;;;;;;;5.63;100.00;-18179.53;4967280;28;20368;-85
2023/02/13 06:55:53;;;;;;;;;;;;;;;5.65;100.00;-18180.09;4968208;28;19937;-84
2023/02/13 06:58:19;;;;;;;;;;;;;;;5.69;100.00;-18181.06;4959134;28;19926;-86
2023/02/13 07:00:45;;;;;;;;;;;;;;;5.67;100.00;-18180.66;4975004;28;19925;-85
2023/02/13 07:03:10;;;;;;;;;;;;;;;5.68;100.00;-18180.78;4972124;28;19926;-83
2023/02/13 07:05:38;;;;;;;;;;;;;;;5.67;100.00;-18180.66;4956072;28;19929;-84
2023/02/13 07:08:03;;;;;;;;;;;;;;;5.70;100.00;-18181.47;4967440;28;19918;-85
2023/02/13 07:10:28;;;;;;;;;;;;;;;5.71;100.00;-18181.63;4985554;28;19922;-84
2023/02/13 07:12:53;;;;;;;;;;;;;;;5.72;100.00;-18182.03;4966053;28;20269;-83
2023/02/13 07:15:19;;;;;;;;;;;;;;;5.73;100.00;-18182.16;4961185;28;21177;-83
2023/02/13 07:17:44;;;;;;;;;;;;;;;5.73;100.00;-18182.31;4961319;28;19918;-83
2023/02/13 07:20:09;;;;;;;;;;;;;;;5.75;100.00;-18182.72;4964934;28;19980;-83
2023/02/13 07:22:35;;;;;;;;;;;;;;;5.76;100.00;-18183.00;4963805;28;20133;-83
2023/02/13 07:25:00;;;;;;;;;;;;;;;5.76;100.00;-18183.13;4968365;28;19929;-84
2023/02/13 07:27:28;;;;;;;;;;;;;;;5.78;100.00;-18183.53;4967272;28;19922;-84
2023/02/13 07:29:53;;;;;;;;;;;;;;;5.79;100.00;-18183.81;4972734;28;19922;-83
2023/02/13 07:32:18;;;;;;;;;;;;;;;5.80;100.00;-18184.09;4971430;28;19977;-84
2023/02/13 07:34:44;;;;;;;;;;;;;;;5.80;100.00;-18184.22;4972078;28;19924;-83
2023/02/13 07:37:10;;;;;;;;;;;;;;;5.82;100.00;-18184.66;4966865;28;19918;-84
2023/02/13 07:39:37;;;;;;;;;;;;;;;5.83;100.00;-18184.91;4957532;28;19923;-85
2023/02/13 07:42:03;;;;;;;;;;;;;;;5.85;100.00;-18185.47;4972940;28;19956;-85
2023/02/13 07:44:29;;;;;;;;;;;;;;;5.88;100.00;-18186.44;4975179;28;19930;-83
2023/02/13 07:46:54;;;;;;;;;;;;;;;5.89;100.00;-18186.72;4978523;28;19926;-85
2023/02/13 07:49:19;;;;;;;;;;;;;;;5.91;100.00;-18187.00;4973514;28;19933;-82
2023/02/13 07:51:44;;;;;;;;;;;;;;;5.91;100.00;-18187.00;4976300;28;19929;-84
2023/02/13 07:54:10;;;;;;;;;;;;;;;5.94;100.00;-18187.97;4979895;28;20287;-83
2023/02/13 07:56:35;;;;;;;;;;;;;;;5.94;100.00;-18187.97;4975269;28;19948;-84
2023/02/13 07:59:00;;;;;;;;;;;;;;;5.97;100.00;-18188.78;4976112;28;19918;-84
2023/02/13 08:01:25;;;;;;;;;;;;;;;6.00;100.00;-18189.63;4975106;28;20051;-83
2023/02/13 08:03:51;;;;;;;;;;;;;;;6.03;100.00;-18190.44;4976671;28;19926;-85
2023/02/13 08:06:17;;;;;;;;;;;;;;;6.06;100.00;-18191.28;4975815;28;19933;-84
2023/02/13 08:08:43;;;;;;;;;;;;;;;6.09;100.00;-18192.09;4992649;28;19926;-84
2023/02/13 08:14:02;;;;;;;;;;;;;;;6.14;100.00;-18193.34;4963246;28;19949;-84
2023/02/13 08:16:27;;;;;;;;;;;;;;;6.17;100.00;-18194.16;4987571;28;19930;-83
2023/02/13 08:18:52;;;;;;;;;;;;;;;6.21;100.00;-18195.13;4979086;28;20616;-84
2023/02/13 08:21:18;;;;;;;;;;;;;;;6.25;100.00;-18196.25;4977589;28;19930;-83
2023/02/13 08:23:43;;;;;;;;;;;;;;;6.28;100.00;-18197.19;4978198;28;19926;-84
2023/02/13 08:26:09;;;;;;;;;;;;;;;6.32;100.00;-18198.31;4979090;28;19931;-83
2023/02/13 08:28:35;;;;;;;;;;;;;;;6.34;100.00;-18198.72;4977017;28;19922;-83
2023/02/13 08:31:00;;;;;;;;;;;;;;;6.37;100.00;-18199.53;4977897;28;20384;-85
2023/02/13 08:33:26;;;;;;;;;;;;;;;6.38;100.00;-18199.81;4975492;28;19922;-84
2023/02/13 08:35:51;;;;;;;;;;;;;;;6.42;100.00;-18200.94;4976375;28;20192;-83
2023/02/13 08:38:16;;;;;;;;;;;;;;;6.46;100.00;-18201.88;4990631;28;19919;-83
2023/02/13 08:40:41;;;;;;;;;;;;;;;6.48;100.00;-18202.59;4975435;28;20368;-84
2023/02/13 08:43:07;;;;;;;;;;;;;;;6.49;100.00;-18202.72;4980295;28;19965;-83
2023/02/13 08:45:32;;;;;;;;;;;;;;;6.51;100.00;-18203.28;4978852;28;19922;-84
2023/02/13 08:47:58;;;;;;;;;;;;;;;6.52;100.00;-18203.69;4978659;28;20013;-83
2023/02/13 08:50:24;;;;;;;;;;;;;;;6.55;100.00;-18204.50;4978211;28;19964;-83
2023/02/13 08:52:49;;;;;;;;;;;;;;;6.54;100.00;-18204.22;4978472;28;19922;-84
2023/02/13 08:55:15;;;;;;;;;;;;;;;6.54;100.00;-18204.22;4978730;28;19929;-85
2023/02/13 08:57:40;;;;;;;;;;;;;;;6.55;100.00;-18204.50;4977905;28;20304;-85
2023/02/13 09:00:05;;;;;;;;;;;;;;;6.59;100.00;-18205.34;4976872;28;19919;-84
2023/02/13 09:02:31;;;;;;;;;;;;;;;6.61;100.00;-18206.03;4977900;28;19922;-84
2023/02/13 09:04:56;;;;;;;;;;;;;;;6.61;100.00;-18206.03;4979248;28;19936;-82
2023/02/13 09:07:21;;;;;;;;;;;;;;;6.62;100.00;-18206.16;4978618;28;19954;-84
2023/02/13 09:09:46;;;;;;;;;;;;;;;6.63;100.00;-18206.44;4955053;28;20288;-84
2023/02/13 09:12:12;;;;;;;;;;;;;;;6.66;100.00;-18207.28;4979266;28;19923;-84
2023/02/13 09:14:38;;;;;;;;;;;;;;;6.68;100.00;-18207.97;4978625;28;19922;-82
2023/02/13 09:17:03;;;;;;;;;;;;;;;6.68;100.00;-18207.81;4972250;28;19986;-84
2023/02/13 09:19:28;;;;;;;;;;;;;;;6.72;100.00;-18208.91;4978071;28;19922;-83
2023/02/13 09:21:53;;;;;;;;;;;;;;;6.73;100.00;-18209.19;4962554;28;20361;-83
2023/02/13 09:24:19;;;;;;;;;;;;;;;6.77;100.00;-18210.31;4972115;28;20008;-83
2023/02/13 09:26:44;;;;;;;;;;;;;;;6.80;100.00;-18211.00;4975766;28;19926;-83
2023/02/13 09:29:09;;;;;;;;;;;;;;;6.83;100.00;-18211.81;4976444;28;19972;-84
2023/02/13 09:31:34;;;;;;;;;;;;;;;6.84;100.00;-18212.09;4977780;28;19962;-85
2023/02/13 09:34:00;;;;;;;;;;;;;;;6.86;100.00;-18212.78;4979299;28;20395;-83
2023/02/13 09:36:25;;;;;;;;;;;;;;;6.90;100.00;-18213.88;4975731;28;20002;-84
2023/02/13 09:38:51;;;;;;;;;;;;;;;6.90;100.00;-18213.88;4963696;28;19926;-82
2023/02/13 09:41:28;;;;;;;;;;;;;;;6.92;100.00;-18214.44;4980158;28;19922;-85
2023/02/13 09:43:59;;;;;;;;;;;;;;;6.95;100.00;-18215.13;4961391;28;19933;-85
2023/02/13 09:46:35;;;;;;;;;;;;;;;6.97;100.00;-18215.81;4977600;28;19933;-83
2023/02/13 09:49:05;;;;;;;;;;;;;;;7.04;100.00;-18217.59;4981148;28;19918;-82
2023/02/13 09:51:31;;;;;;;;;;;;;;;7.10;100.00;-18219.25;4980419;28;19929;-83
2023/02/13 09:54:01;;;;;;;;;;;;;;;7.13;100.00;-18220.09;4979685;28;19922;-84
2023/02/13 09:56:53;;;;;;;;;;;;;;;7.19;100.00;-18221.59;4994746;28;19929;-83
2023/02/13 09:59:30;;;;;;;;;;;;;;;7.22;100.00;-18222.44;4982131;28;19930;-83
2023/02/13 10:01:58;;;;;;;;;;;;;;;7.25;100.00;-18223.25;4979699;28;19928;-84
2023/02/13 10:04:30;;;;;;;;;;;;;;;7.30;100.00;-18224.63;4982052;28;19976;-84
2023/02/13 10:07:14;;;;;;;;;;;;;;;7.36;100.00;-18226.28;4977589;28;19922;-84
2023/02/13 10:09:47;;;;;;;;;;;;;;;7.40;100.00;-18227.38;4970591;28;19932;-83
2023/02/13 10:12:20;;;;;;;;;;;;;;;7.45;100.00;-18228.75;4979026;28;20028;-84
2023/02/13 10:14:53;;;;;;;;;;;;;;;7.50;100.00;-18229.88;4977687;28;19922;-84
2023/02/13 10:17:53;;;;;;;;;;;;;;;7.54;100.00;-18231.09;4978822;28;20865;-83
2023/02/13 10:20:34;;;;;;;;;;;;;;;7.56;100.00;-18231.66;4939127;29;20415;-83
2023/02/13 10:23:07;;;;;;;;;;;;;;;7.61;100.00;-18232.91;4957852;28;19922;-83
2023/02/13 10:26:01;;;;;;;;;;;;;;;7.66;100.00;-18234.41;4974562;28;19931;-84
2023/02/13 10:28:34;;;;;;;;;;;;;;;7.66;100.00;-18234.41;4971715;28;19926;-84
2023/02/13 10:31:21;;;;;;;;;;;;;;;7.68;100.00;-18234.97;4994195;28;19989;-83
2023/02/13 10:33:50;;;;;;;;;;;;;;;7.74;100.00;-18236.34;4959266;28;19922;-83
2023/02/13 10:36:15;;;;;;;;;;;;;;;7.76;100.00;-18237.03;4972874;28;19977;-82
2023/02/13 10:38:43;;;;;;;;;;;;;;;7.83;100.00;-18238.97;4993790;28;20451;-83
2023/02/13 10:41:08;;;;;;;;;;;;;;;7.90;100.00;-18240.88;4979707;28;20368;-83
2023/02/13 10:43:39;;;;;;;;;;;;;;;7.98;100.00;-18242.81;4991477;28;19957;-84
2023/02/13 10:46:15;;;;;;;;;;;;;;;7.93;100.00;-18241.44;4979715;28;19945;-84
2023/02/13 10:48:49;;;;;;;;;;;;;;;7.93;100.00;-18241.44;4979970;28;20442;-83
2023/02/13 10:51:20;;;;;;;;;;;;;;;7.88;100.00;-18240.19;4993797;28;19922;-84
2023/02/13 10:54:08;;;;;;;;;;;;;;;7.88;100.00;-18240.34;4975595;28;19923;-84
2023/02/13 10:56:42;;;;;;;;;;;;;;;7.99;100.00;-18243.09;4995067;28;19922;-84
2023/02/13 10:59:16;;;;;;;;;;;;;;;8.00;100.00;-18243.50;4979927;28;19922;-83
2023/02/13 11:01:47;;;;;;;;;;;;;;;8.02;100.00;-18243.91;4994635;28;19993;-83
2023/02/13 11:04:16;;;;;;;;;;;;;;;8.06;100.00;-18245.03;4982126;28;20289;-84
2023/02/13 11:06:42;;;;;;;;;;;;;;;8.13;100.00;-18247.09;4959601;28;20587;-83
2023/02/13 11:09:08;;;;;;;;;;;;;;;8.22;100.00;-18249.28;4973220;28;19918;-83
2023/02/13 11:11:35;;;;;;;;;;;;;;;8.26;100.00;-18250.53;4977963;28;19926;-82
2023/02/13 11:14:08;;;;;;;;;;;;;;;8.29;100.00;-18251.34;4958347;28;19930;-84
2023/02/13 11:16:38;;;;;;;;;;;;;;;8.32;100.00;-18252.03;4957765;28;19922;-83
2023/02/13 11:19:03;;;;;;;;;;;;;;;8.39;100.00;-18253.84;4971884;28;19918;-84
2023/02/13 11:21:34;;;;;;;;;;;;;;;8.43;100.00;-18255.06;4971922;28;19933;-83
2023/02/13 11:24:00;;;;;;;;;;;;;;;8.55;100.00;-18258.25;4971797;28;19950;-83
2023/02/13 11:26:38;;;;;;;;;;;;;;;8.66;100.00;-18261.28;4970658;28;19922;-85
2023/02/13 11:29:14;;;;;;;;;;;;;;;8.75;100.00;-18263.75;4969939;28;19997;-83
2023/02/13 11:31:39;;;;;;;;;;;;;;;8.81;100.00;-18265.41;4969082;28;19922;-85
2023/02/13 11:34:24;;;;;;;;;;;;;;;8.98;100.00;-18269.81;4966111;28;19922;-83
2023/02/13 11:37:06;;;;;;;;;;;;;;;9.07;100.00;-18272.28;4968617;28;19934;-85
2023/02/13 11:39:31;;;;;;;;;;;;;;;9.14;100.00;-18274.06;4968696;28;19973;-83
2023/02/13 11:41:56;;;;;;;;;;;;;;;9.14;100.00;-18274.06;4970571;28;19922;-83
2023/02/13 11:44:26;;;;;;;;;;;;;;;9.13;100.00;-18273.94;4971169;28;19976;-82
2023/02/13 11:46:53;;;;;;;;;;;;;;;9.11;100.00;-18273.22;4972273;28;20665;-83
2023/02/13 11:49:18;;;;;;;;;;;;;;;9.15;100.00;-18274.34;4980222;28;19933;-84
2023/02/13 11:51:45;;;;;;;;;;;;;;;9.19;100.00;-18275.56;4970431;28;19926;-82
2023/02/13 11:54:22;;;;;;;;;;;;;;;9.20;100.00;-18275.72;4968025;28;20016;-84
2023/02/13 11:56:48;;;;;;;;;;;;;;;9.23;100.00;-18276.66;4967288;28;19919;-83
2023/02/13 11:59:13;;;;;;;;;;;;;;;9.34;100.00;-18279.44;4969452;28;20506;-84
2023/02/13 12:01:39;;;;;;;;;;;;;;;9.41;100.00;-18281.34;4970631;28;19973;-83
2023/02/13 12:04:07;;;;;;;;;;;;;;;9.47;100.00;-18283.00;4973339;28;19994;-83
2023/02/13 12:06:38;;;;;;;;;;;;;;;9.56;100.00;-18285.34;4968539;28;19923;-84
2023/02/13 12:09:04;;;;;;;;;;;;;;;9.66;100.00;-18288.09;4955097;28;20336;-83
2023/02/13 12:11:37;;;;;;;;;;;;;;;9.76;100.00;-18290.69;4956151;28;19919;-83
2023/02/13 12:14:03;;;;;;;;;;;;;;;9.81;100.00;-18292.22;4972299;28;19933;-83
2023/02/13 12:16:32;;;;;;;;;;;;;;;10.02;100.00;-18297.84;4974829;28;19922;-83
2023/02/13 12:19:00;;;;;;;;;;;;;;;10.18;100.00;-18302.09;4956652;28;19928;-83
2023/02/13 12:21:28;;;;;;;;;;;;;;;10.14;100.00;-18301.16;4972383;28;19933;-85
2023/02/13 12:23:59;;;;;;;;;;;;;;;10.06;100.00;-18298.81;4989988;28;19934;-84
2023/02/13 12:26:30;;;;;;;;;;;;;;;10.09;100.00;-18299.63;4975003;28;20033;-85
2023/02/13 12:28:55;;;;;;;;;;;;;;;10.12;100.00;-18300.59;4973114;28;19926;-83
2023/02/13 12:31:45;;;;;;;;;;;;;;;10.19;100.00;-18302.25;4971318;28;19977;-84
2023/02/13 12:34:23;;;;;;;;;;;;;;;10.34;100.00;-18306.38;4975895;28;19937;-83
2023/02/13 12:37:05;;;;;;;;;;;;;;;10.40;100.00;-18308.03;4973349;28;19926;-83
2023/02/13 12:39:33;;;;;;;;;;;;;;;10.50;100.00;-18310.63;4972205;28;20360;-85
2023/02/13 12:42:07;;;;;;;;;;;;;;;10.55;100.00;-18312.00;4978416;28;20412;-83
2023/02/13 12:44:33;;;;;;;;;;;;;;;10.65;100.00;-18314.63;4973374;28;20277;-84
2023/02/13 12:47:09;;;;;;;;;;;;;;;10.64;100.00;-18314.34;4976580;28;19927;-84
2023/02/13 12:49:41;;;;;;;;;;;;;;;10.74;100.00;-18317.09;4977533;28;20014;-83
2023/02/13 12:52:29;;;;;;;;;;;;;;;10.68;100.00;-18315.59;4975047;28;19929;-84
2023/02/13 12:54:54;;;;;;;;;;;;;;;10.71;100.00;-18316.28;4974095;28;19953;-84
2023/02/13 12:57:26;;;;;;;;;;;;;;;10.75;100.00;-18317.38;4976670;28;20500;-85
2023/02/13 13:00:09;;;;;;;;;;;;;;;10.75;100.00;-18317.38;4976399;28;19933;-83
2023/02/13 13:02:53;;;;;;;;;;;;;;;10.91;100.00;-18321.75;4974260;28;19932;-84
2023/02/13 13:05:30;;;;;;;;;;;;;;;11.05;100.00;-18325.47;4975918;28;20052;-83
2023/02/13 13:08:02;;;;;;;;;;;;;;;11.23;100.00;-18330.41;4960263;28;19922;-82
2023/02/13 13:10:34;;;;;;;;;;;;;;;11.33;100.00;-18332.88;4978708;28;19984;-84
2023/02/13 13:13:00;;;;;;;;;;;;;;;11.23;100.00;-18330.28;4979528;28;19918;-83
2023/02/13 13:15:38;;;;;;;;;;;;;;;11.27;100.00;-18331.38;4978923;28;20387;-83
2023/02/13 13:18:18;;;;;;;;;;;;;;;11.40;100.00;-18334.94;4983273;28;20442;-82
2023/02/13 13:21:10;;;;;;;;;;;;;;;11.46;100.00;-18336.59;4980766;28;20017;-83
2023/02/13 13:23:38;;;;;;;;;;;;;;;11.57;100.00;-18339.47;4956895;28;19930;-84